Time;durP1;ratioP1;P1;durP2;ratioP2;P2;SDS_P1;SDS_P2;PMS_P1;PMS_P2;Temp;Humidity;BMP_temperature;BMP_pressure;BME280_temperature;BME280_humidity;BME280_pressure;Samples;Min_cycle;Max_cycle;Signal;HPM_P1;HPM_P2
2020/02/24 00:02:24;;;;;;;0.6;0.3;;;;;;;16.3;41.50098;940.49;;;;
2020/02/24 00:04:49;;;;;;;1.5;0.4;;;;;;;16.37;41.41406;940.4573;;;;
2020/02/24 00:07:14;;;;;;;0.6;0.3;;;;;;;16.37;41.28711;940.2989;;;;
2020/02/24 00:09:39;;;;;;;0.4;0.3;;;;;;;16.35;41.41309;940.5072;;;;
2020/02/24 00:12:04;;;;;;;0.4;0.4;;;;;;;16.36;41.91211;940.2885;;;;
2020/02/24 00:14:29;;;;;;;0.5;0.3;;;;;;;16.39;41.49805;940.4803;;;;
2020/02/24 00:16:55;;;;;;;1.3;0.4;;;;;;;16.39;42.05273;940.2369;;;;
2020/02/24 00:19:33;;;;;;;0.5;0.3;;;;;;;16.33;42.04688;940.2439;;;;
2020/02/24 00:21:47;;;;;;;0.5;0.3;;;;;;;16.36;42.09668;940.3416;;;;
2020/02/24 00:26:47;;;;;;;0.7;0.4;;;;;;;16.28;42.77148;940.2902;;;;
2020/02/24 00:29:00;;;;;;;0.8;0.4;;;;;;;16.43;43.0293;940.3734;;;;
2020/02/24 00:31:26;;;;;;;0.5;0.4;;;;;;;16.41;42.10156;940.3845;;;;
2020/02/24 00:33:51;;;;;;;0.6;0.3;;;;;;;16.45;42.31348;940.3596;;;;
2020/02/24 00:36:17;;;;;;;0.7;0.4;;;;;;;16.38;42.5957;940.1316;;;;
2020/02/24 00:38:42;;;;;;;0.4;0.4;;;;;;;16.3;42.86523;940.5881;;;;
2020/02/24 00:41:07;;;;;;;0.6;0.4;;;;;;;16.37;43.27832;940.4242;;;;
2020/02/24 00:43:32;;;;;;;0.4;0.4;;;;;;;16.39;42.92188;940.3727;;;;
2020/02/24 00:45:57;;;;;;;1.5;0.4;;;;;;;16.36;43.09277;940.3995;;;;
2020/02/24 00:48:23;;;;;;;0.6;0.4;;;;;;;16.3;43.39844;940.4554;;;;
2020/02/24 00:50:48;;;;;;;0.7;0.3;;;;;;;16.33;43.35449;940.3539;;;;
2020/02/24 00:53:13;;;;;;;0.6;0.4;;;;;;;16.34;43.66797;940.4455;;;;
2020/02/24 00:55:38;;;;;;;0.5;0.4;;;;;;;16.29;43.55859;940.7753;;;;
2020/02/24 00:58:26;;;;;;;1.2;0.4;;;;;;;16.35;44.12012;940.8898;;;;
2020/02/24 01:00:51;;;;;;;0.5;0.5;;;;;;;16.22;44.93945;940.9713;;;;
2020/02/24 01:03:17;;;;;;;0.6;0.3;;;;;;;16.18;45.38672;940.7101;;;;
2020/02/24 01:05:42;;;;;;;0.5;0.3;;;;;;;16.15;45.70801;940.9305;;;;
2020/02/24 01:08:07;;;;;;;0.8;0.5;;;;;;;16.13;46.27246;940.9821;;;;
2020/02/24 01:10:33;;;;;;;1.4;0.5;;;;;;;16.23;47.10547;940.9406;;;;
2020/02/24 01:12:58;;;;;;;0.7;0.5;;;;;;;16.08;46.75391;941.0603;;;;
2020/02/24 01:15:23;;;;;;;0.7;0.4;;;;;;;16.14;47.39551;941.0817;;;;
2020/02/24 01:17:48;;;;;;;1.2;0.6;;;;;;;16.02;48.64355;941.2447;;;;
2020/02/24 01:20:13;;;;;;;0.7;0.4;;;;;;;15.85;49.88281;941.3805;;;;
2020/02/24 01:22:38;;;;;;;0.8;0.5;;;;;;;15.85;49.87207;941.3242;;;;
2020/02/24 01:25:03;;;;;;;1;0.4;;;;;;;16.01;49.90137;941.3987;;;;
2020/02/24 01:27:28;;;;;;;0.9;0.5;;;;;;;15.48;51.2627;941.4497;;;;
2020/02/24 01:29:54;;;;;;;1.3;0.5;;;;;;;14.98;55.77051;941.4353;;;;
2020/02/24 01:32:19;;;;;;;0.4;0.4;;;;;;;14.49;57.55078;941.4554;;;;
2020/02/24 01:37:17;;;;;;;1;0.6;;;;;;;14.42;59.3291;941.5024;;;;
2020/02/24 01:39:34;;;;;;;1.4;0.6;;;;;;;14.48;59.60156;941.3881;;;;
2020/02/24 01:41:59;;;;;;;0.9;0.6;;;;;;;14.21;60.73926;941.2751;;;;
2020/02/24 01:44:24;;;;;;;2.1;0.5;;;;;;;14.19;59.125;941.521;;;;
2020/02/24 01:46:49;;;;;;;1.1;0.5;;;;;;;14.23;57.33301;941.2683;;;;
2020/02/24 01:49:14;;;;;;;0.5;0.4;;;;;;;14.54;56.58984;941.3577;;;;
2020/02/24 01:51:40;;;;;;;0.9;0.4;;;;;;;14.56;56.91602;941.4642;;;;
2020/02/24 01:54:05;;;;;;;0.8;0.5;;;;;;;14.68;57.2207;941.4579;;;;
2020/02/24 01:56:30;;;;;;;0.7;0.4;;;;;;;14.66;58.28906;941.5293;;;;
2020/02/24 01:58:56;;;;;;;1.1;0.6;;;;;;;14.45;59.21777;941.4739;;;;
2020/02/24 02:01:21;;;;;;;1;0.4;;;;;;;14.25;59.6748;941.5117;;;;
2020/02/24 02:03:46;;;;;;;0.9;0.5;;;;;;;14.08;59.35156;941.5505;;;;
2020/02/24 02:06:11;;;;;;;0.6;0.5;;;;;;;14.23;59.37109;941.4517;;;;
2020/02/24 02:08:36;;;;;;;0.6;0.5;;;;;;;14.43;58.16699;941.6099;;;;
2020/02/24 02:11:01;;;;;;;1.4;0.5;;;;;;;14.42;58.8457;941.5962;;;;
2020/02/24 02:13:27;;;;;;;1;0.6;;;;;;;14.49;58.47363;941.6501;;;;
2020/02/24 02:15:53;;;;;;;0.7;0.4;;;;;;;14.4;57.56348;941.5734;;;;
2020/02/24 02:18:17;;;;;;;0.8;0.4;;;;;;;14.38;58.43652;941.4316;;;;
2020/02/24 02:20:42;;;;;;;0.9;0.4;;;;;;;14.12;58.97852;941.4409;;;;
2020/02/24 02:23:08;;;;;;;0.3;0.3;;;;;;;14.1;59.37695;941.4737;;;;
2020/02/24 02:25:33;;;;;;;0.7;0.4;;;;;;;14.24;59.61426;941.4789;;;;
2020/02/24 02:27:58;;;;;;;0.4;0.3;;;;;;;14.19;59.44727;941.577;;;;
2020/02/24 02:30:24;;;;;;;1;0.5;;;;;;;14.11;59.56445;941.5394;;;;
2020/02/24 02:32:49;;;;;;;0.7;0.5;;;;;;;14.12;60.4043;941.6234;;;;
2020/02/24 02:35:20;;;;;;;0.6;0.4;;;;;;;14.1;60.78223;941.6979;;;;
2020/02/24 02:37:39;;;;;;;0.6;0.4;;;;;;;14.07;60.20215;941.7427;;;;
2020/02/24 02:40:04;;;;;;;0.6;0.4;;;;;;;14.03;60.75977;941.7003;;;;
2020/02/24 02:42:29;;;;;;;1.5;0.5;;;;;;;14.08;61.52637;941.661;;;;
2020/02/24 02:44:55;;;;;;;0.5;0.3;;;;;;;13.99;62.83984;941.7975;;;;
2020/02/24 02:47:20;;;;;;;0.4;0.3;;;;;;;13.88;63.09863;941.8092;;;;
2020/02/24 02:49:45;;;;;;;0.3;0.3;;;;;;;13.84;64.13965;941.8436;;;;
2020/02/24 02:52:10;;;;;;;0.6;0.3;;;;;;;13.78;63.40625;941.9359;;;;
2020/02/24 02:54:35;;;;;;;0.6;0.4;;;;;;;13.76;63.03613;941.9023;;;;
2020/02/24 02:57:00;;;;;;;0.8;0.4;;;;;;;14.04;64.15723;941.9116;;;;
2020/02/24 02:59:25;;;;;;;0.9;0.4;;;;;;;13.92;64.25488;941.967;;;;
2020/02/24 03:01:51;;;;;;;0.7;0.5;;;;;;;13.75;65.27637;941.7383;;;;
2020/02/24 03:04:15;;;;;;;0.5;0.4;;;;;;;13.73;66.27441;941.9575;;;;
2020/02/24 03:06:40;;;;;;;0.4;0.4;;;;;;;13.56;65.89258;941.9302;;;;
2020/02/24 03:09:05;;;;;;;0.6;0.5;;;;;;;13.77;66.54395;941.8759;;;;
2020/02/24 03:11:31;;;;;;;0.8;0.5;;;;;;;13.69;68.0625;941.9589;;;;
2020/02/24 03:13:56;;;;;;;1.3;0.4;;;;;;;13.58;68.88379;941.975;;;;
2020/02/24 03:16:21;;;;;;;1;0.4;;;;;;;13.16;72.83887;941.9011;;;;
2020/02/24 03:18:46;;;;;;;0.6;0.3;;;;;;;13.08;73.84766;942.0812;;;;
2020/02/24 03:21:11;;;;;;;0.4;0.3;;;;;;;12.88;70.91895;942.015;;;;
2020/02/24 03:23:36;;;;;;;0.2;0.1;;;;;;;12.71;68.91895;941.9656;;;;
2020/02/24 03:26:02;;;;;;;0.4;0.2;;;;;;;12.97;68.375;941.9581;;;;
2020/02/24 03:28:27;;;;;;;2.3;0.4;;;;;;;13.12;69.49023;942.0552;;;;
2020/02/24 03:30:52;;;;;;;0.4;0.4;;;;;;;13.1;68.98047;942.0286;;;;
2020/02/24 03:33:17;;;;;;;1.3;0.3;;;;;;;13.14;69.68652;942.0264;;;;
2020/02/24 03:35:42;;;;;;;0.1;0.1;;;;;;;13.24;66.72852;942.0452;;;;
2020/02/24 03:38:16;;;;;;;2.3;0.6;;;;;;;13.31;73.00195;942.1351;;;;
2020/02/24 03:40:32;;;;;;;1.1;0.2;;;;;;;13.06;67.90625;942.1987;;;;
2020/02/24 03:42:58;;;;;;;0.7;0.3;;;;;;;12.98;70.55762;942.2243;;;;
2020/02/24 03:45:23;;;;;;;1.2;0.4;;;;;;;12.95;70.49609;942.2425;;;;
2020/02/24 03:47:53;;;;;;;0.8;0.4;;;;;;;12.63;72.40527;942.2216;;;;
2020/02/24 03:52:38;;;;;;;1.2;0.2;;;;;;;12.66;72.96191;942.3848;;;;
2020/02/24 03:55:05;;;;;;;1.6;0.4;;;;;;;12.83;73.86133;942.4606;;;;
2020/02/24 03:57:30;;;;;;;0.9;0.2;;;;;;;12.86;75.01367;942.512;;;;
2020/02/24 03:59:55;;;;;;;1.7;0.3;;;;;;;12.59;72.87988;942.4038;;;;
2020/02/24 04:02:28;;;;;;;0.3;0.2;;;;;;;12.7;74.88477;942.4793;;;;
2020/02/24 04:04:53;;;;;;;1.1;0.5;;;;;;;12.82;75.51465;942.4981;;;;
2020/02/24 04:07:18;;;;;;;1.3;0.4;;;;;;;12.92;74.49805;942.5053;;;;
2020/02/24 04:09:43;;;;;;;1.9;0.5;;;;;;;12.66;74.93359;942.6619;;;;
2020/02/24 04:12:08;;;;;;;0.6;0.3;;;;;;;12.26;76.83691;942.807;;;;
2020/02/24 04:14:33;;;;;;;1.2;0.3;;;;;;;11.82;80.2168;942.7202;;;;
2020/02/24 04:16:59;;;;;;;0.3;0.1;;;;;;;11.61;80.00586;942.6394;;;;
2020/02/24 04:19:24;;;;;;;1.3;0.5;;;;;;;11.55;78.6123;942.7449;;;;
2020/02/24 04:21:49;;;;;;;0.9;0.4;;;;;;;11.79;77.8877;942.8816;;;;
2020/02/24 04:24:14;;;;;;;0.7;0.3;;;;;;;12.1;76.85449;943.0533;;;;
2020/02/24 04:26:39;;;;;;;1.8;0.3;;;;;;;12.34;76.06055;943.0355;;;;
2020/02/24 04:29:04;;;;;;;1;0.6;;;;;;;11.53;78.27734;943.267;;;;
2020/02/24 04:31:29;;;;;;;1.8;0.8;;;;;;;10.66;77.70801;943.3529;;;;
2020/02/24 04:33:54;;;;;;;1.7;0.9;;;;;;;10.33;78.01465;943.2143;;;;
2020/02/24 04:36:19;;;;;;;0.9;0.7;;;;;;;9.67;79.5918;943.1453;;;;
2020/02/24 04:38:44;;;;;;;0.9;0.7;;;;;;;9.46;80.3623;943.2188;;;;
2020/02/24 04:41:09;;;;;;;1.7;0.8;;;;;;;9.32;80.42773;943.3448;;;;
2020/02/24 04:43:34;;;;;;;1.5;0.9;;;;;;;8.72;82.07715;943.5221;;;;
2020/02/24 04:45:59;;;;;;;1;0.8;;;;;;;8.69;82.41504;943.4922;;;;
2020/02/24 04:48:24;;;;;;;0.9;0.7;;;;;;;8.59;82.51758;943.5153;;;;
2020/02/24 04:50:50;;;;;;;2.1;1;;;;;;;8.27;83.50195;943.509;;;;
2020/02/24 04:53:15;;;;;;;1.2;0.9;;;;;;;7.92;83.71875;943.4403;;;;
2020/02/24 04:55:40;;;;;;;1.3;1;;;;;;;7.5;86.0625;943.4602;;;;
2020/02/24 04:58:05;;;;;;;1.4;1;;;;;;;7.7;85.03613;943.5376;;;;
2020/02/24 05:00:30;;;;;;;1.5;1.1;;;;;;;7.59;86.05957;943.5898;;;;
2020/02/24 05:02:55;;;;;;;1.4;1;;;;;;;7.36;86.05664;943.6103;;;;
2020/02/24 05:05:20;;;;;;;1.5;1.2;;;;;;;7.4;86.09961;943.6821;;;;
2020/02/24 05:07:45;;;;;;;0.9;0.9;;;;;;;7.57;85.23828;943.8166;;;;
2020/02/24 05:10:11;;;;;;;0.8;0.8;;;;;;;7.57;85.4082;943.8642;;;;
2020/02/24 05:12:36;;;;;;;1;0.9;;;;;;;7.68;85.08887;943.7558;;;;
2020/02/24 05:15:01;;;;;;;1.4;0.9;;;;;;;7.58;85.27344;943.8334;;;;
2020/02/24 05:17:27;;;;;;;1.1;1;;;;;;;7.65;84.75293;943.8753;;;;
2020/02/24 05:19:51;;;;;;;1;0.9;;;;;;;7.5;85.17871;943.9587;;;;
2020/02/24 05:22:17;;;;;;;2.3;0.8;;;;;;;7.44;85.98145;944.0131;;;;
2020/02/24 05:24:42;;;;;;;1;0.7;;;;;;;7.66;84.8916;944.0112;;;;
2020/02/24 05:27:07;;;;;;;0.7;0.5;;;;;;;7.49;84.91602;944.0377;;;;
2020/02/24 05:29:32;;;;;;;0.9;0.8;;;;;;;7.19;86.44336;944.0691;;;;
2020/02/24 05:31:58;;;;;;;0.7;0.5;;;;;;;7.22;86.38086;944.1005;;;;
2020/02/24 05:34:23;;;;;;;0.5;0.5;;;;;;;7.39;85.74805;944.1089;;;;
2020/02/24 05:36:48;;;;;;;0.4;0.4;;;;;;;7.14;86.19434;944.0887;;;;
2020/02/24 05:39:13;;;;;;;1.8;1;;;;;;;7.22;86.5166;944.1082;;;;
2020/02/24 05:41:38;;;;;;;3;1.5;;;;;;;7.2;86.80762;944.113;;;;
2020/02/24 05:44:03;;;;;;;2;1.1;;;;;;;7.28;86.21191;944.012;;;;
2020/02/24 05:46:28;;;;;;;0.8;0.5;;;;;;;7.17;86.32617;944.025;;;;
2020/02/24 05:48:54;;;;;;;1.3;0.6;;;;;;;7.06;86.7666;944.0672;;;;
2020/02/24 05:51:18;;;;;;;0.9;0.6;;;;;;;7.1;86.78711;943.9619;;;;
2020/02/24 05:53:44;;;;;;;0.5;0.5;;;;;;;7.03;86.43066;944.0156;;;;
2020/02/24 05:56:09;;;;;;;0.6;0.6;;;;;;;7.3;85.78516;944.1149;;;;
2020/02/24 05:58:34;;;;;;;0.6;0.6;;;;;;;7.39;85.45117;944.0715;;;;
2020/02/24 06:00:59;;;;;;;0.8;0.5;;;;;;;7.58;84.13965;944.0798;;;;
2020/02/24 06:03:25;;;;;;;0.8;0.6;;;;;;;7.57;83.63867;944.0226;;;;
2020/02/24 06:05:50;;;;;;;0.6;0.5;;;;;;;7.48;84.0752;944.0406;;;;
2020/02/24 06:08:16;;;;;;;1.3;0.7;;;;;;;7.33;84.35254;944.1127;;;;
2020/02/24 06:10:42;;;;;;;1.1;0.7;;;;;;;7.36;84.2207;944.13;;;;
2020/02/24 06:13:07;;;;;;;1.2;0.8;;;;;;;7.28;84.31934;944.0112;;;;
2020/02/24 06:15:32;;;;;;;0.9;0.8;;;;;;;6.94;85.63379;944.048;;;;
2020/02/24 06:17:57;;;;;;;1.8;0.9;;;;;;;7.1;85.90332;944.1312;;;;
2020/02/24 06:20:22;;;;;;;2.3;0.9;;;;;;;6.94;86.13184;944.0173;;;;
2020/02/24 06:22:47;;;;;;;1.3;0.9;;;;;;;6.88;86.08691;944.0692;;;;
2020/02/24 06:25:12;;;;;;;1.7;1.2;;;;;;;7.15;85.30078;944.0916;;;;
2020/02/24 06:27:37;;;;;;;1.4;1.1;;;;;;;7.1;85.00879;944.0933;;;;
2020/02/24 06:30:02;;;;;;;1.5;1.1;;;;;;;7.14;84.54004;944.1616;;;;
2020/02/24 06:32:27;;;;;;;2.7;1.3;;;;;;;7.07;85.2168;944.2623;;;;
2020/02/24 06:34:53;;;;;;;1.7;1.2;;;;;;;7.15;84.69141;944.2612;;;;
2020/02/24 06:37:18;;;;;;;1.3;1.2;;;;;;;6.8;85.60449;944.2522;;;;
2020/02/24 06:39:44;;;;;;;1.4;1.2;;;;;;;6.89;85.08105;944.2578;;;;
2020/02/24 06:42:09;;;;;;;2.3;1.3;;;;;;;6.64;86.16211;944.217;;;;
2020/02/24 06:44:34;;;;;;;1.2;1.1;;;;;;;6.83;85.80371;944.195;;;;
2020/02/24 06:46:59;;;;;;;1.4;1.3;;;;;;;6.92;85.69727;944.2764;;;;
2020/02/24 06:49:25;;;;;;;1.3;1.2;;;;;;;7.06;85.05664;944.3025;;;;
2020/02/24 06:51:50;;;;;;;1.2;1.1;;;;;;;6.96;84.61816;944.3052;;;;
2020/02/24 06:54:15;;;;;;;1.5;1.3;;;;;;;7.03;84.65332;944.2372;;;;
2020/02/24 06:56:40;;;;;;;1.9;1.2;;;;;;;7.03;84.89258;944.322;;;;
2020/02/24 06:59:05;;;;;;;1.7;1.3;;;;;;;7.15;83.99805;944.4266;;;;
2020/02/24 07:01:31;;;;;;;0.9;0.9;;;;;;;7.01;83.68848;944.4141;;;;
2020/02/24 07:03:56;;;;;;;1.9;1.1;;;;;;;7.01;83.60938;944.5059;;;;
2020/02/24 07:06:22;;;;;;;1.2;1.1;;;;;;;7.08;83.22656;944.418;;;;
2020/02/24 07:08:47;;;;;;;1.4;1;;;;;;;6.91;83.96387;944.4644;;;;
2020/02/24 07:11:13;;;;;;;1.3;1.1;;;;;;;6.96;83.65723;944.4297;;;;
2020/02/24 07:13:38;;;;;;;1.6;1.4;;;;;;;7.02;83.89453;944.442;;;;
2020/02/24 07:16:03;;;;;;;1.3;1.2;;;;;;;6.93;83.66113;944.4864;;;;
2020/02/24 07:18:29;;;;;;;2.2;1.4;;;;;;;6.83;83.87988;944.4508;;;;
2020/02/24 07:20:54;;;;;;;2.1;1.2;;;;;;;6.98;82.94727;944.4026;;;;
2020/02/24 07:23:20;;;;;;;2.5;1.2;;;;;;;6.86;83.43262;944.4469;;;;
2020/02/24 07:25:45;;;;;;;1.4;1.1;;;;;;;6.78;83.47461;944.5136;;;;
2020/02/24 07:28:11;;;;;;;3.4;1.3;;;;;;;6.78;83.68848;944.5229;;;;
2020/02/24 07:30:47;;;;;;;1.6;0.9;;;;;;;6.57;83.33105;944.5757;;;;
2020/02/24 07:33:11;;;;;;;0.8;0.8;;;;;;;6.59;83.0625;944.5022;;;;
2020/02/24 07:35:39;;;;;;;0.8;0.8;;;;;;;6.65;83.19922;944.5623;;;;
2020/02/24 07:38:02;;;;;;;1.5;0.8;;;;;;;6.67;83.23828;944.48;;;;
2020/02/24 07:40:22;;;;;;;1.8;1;;;;;;;6.71;83.09863;944.494;;;;
2020/02/24 07:42:41;;;;;;;1.3;1;;;;;;;6.51;83.30762;944.4702;;;;
2020/02/24 07:45:07;;;;;;;0.8;0.7;;;;;;;6.57;82.98047;944.4681;;;;
2020/02/24 07:47:32;;;;;;;1;0.7;;;;;;;6.63;83.53516;944.4406;;;;
2020/02/24 07:49:57;;;;;;;1;0.8;;;;;;;6.82;83.11914;944.4393;;;;
2020/02/24 07:52:22;;;;;;;1;0.9;;;;;;;6.9;82.82813;944.4339;;;;
2020/02/24 07:54:47;;;;;;;1.5;1;;;;;;;6.94;82.45215;944.4497;;;;
2020/02/24 07:57:12;;;;;;;0.9;0.8;;;;;;;6.8;82.85449;944.4904;;;;
2020/02/24 07:59:38;;;;;;;1;0.8;;;;;;;7;82.29395;944.5562;;;;
2020/02/24 08:02:03;;;;;;;2.4;1.1;;;;;;;6.85;82.30957;944.4528;;;;
2020/02/24 08:04:28;;;;;;;2.4;0.8;;;;;;;6.82;82.04297;944.5658;;;;
2020/02/24 08:06:54;;;;;;;1.2;1;;;;;;;6.82;82.46289;944.5248;;;;
2020/02/24 08:09:19;;;;;;;2;0.8;;;;;;;6.92;82.03906;944.6094;;;;
2020/02/24 08:11:44;;;;;;;1.2;0.9;;;;;;;6.98;81.97168;944.6019;;;;
2020/02/24 08:14:09;;;;;;;1.4;0.9;;;;;;;6.8;81.8125;944.6258;;;;
2020/02/24 08:16:34;;;;;;;1.1;0.8;;;;;;;6.86;82.10742;944.6203;;;;
2020/02/24 08:19:00;;;;;;;1;0.9;;;;;;;6.95;81.47949;944.6027;;;;
2020/02/24 08:21:25;;;;;;;1.2;0.9;;;;;;;6.92;81.99512;944.5978;;;;
2020/02/24 08:23:50;;;;;;;1.4;1.1;;;;;;;7.05;81.58887;944.622;;;;
2020/02/24 08:26:15;;;;;;;1.7;1;;;;;;;6.97;82.13965;944.5717;;;;
2020/02/24 08:28:42;;;;;;;1.2;1;;;;;;;7.05;81.82715;944.6364;;;;
2020/02/24 08:31:06;;;;;;;2.1;1.7;;;;;;;6.37;84.41113;944.6011;;;;
2020/02/24 08:33:31;;;;;;;2.4;1.7;;;;;;;6.61;83.87109;944.5062;;;;
2020/02/24 08:35:56;;;;;;;1.3;0.9;;;;;;;6.61;83.86914;944.6189;;;;
2020/02/24 08:38:21;;;;;;;0.8;0.8;;;;;;;6.72;83.49609;944.5394;;;;
2020/02/24 08:40:46;;;;;;;2;1;;;;;;;7.01;82.66895;944.5526;;;;
2020/02/24 08:43:11;;;;;;;1.1;0.9;;;;;;;6.97;82.02637;944.6002;;;;
2020/02/24 08:45:36;;;;;;;1.8;0.9;;;;;;;7.07;81.86426;944.5458;;;;
2020/02/24 08:48:02;;;;;;;2;1;;;;;;;6.91;82.47852;944.56;;;;
2020/02/24 08:50:26;;;;;;;1.6;0.8;;;;;;;7.09;81.8125;944.5333;;;;
2020/02/24 08:52:52;;;;;;;1.3;0.7;;;;;;;7.18;80.68457;944.4553;;;;
2020/02/24 08:55:17;;;;;;;1.2;0.7;;;;;;;7.15;80.46387;944.4774;;;;
2020/02/24 08:57:42;;;;;;;1.2;0.7;;;;;;;7.07;80.7207;944.3922;;;;
2020/02/24 09:00:07;;;;;;;1.6;0.9;;;;;;;6.99;81.22754;944.4252;;;;
2020/02/24 09:02:32;;;;;;;0.7;0.7;;;;;;;7.12;81.07031;944.3915;;;;
2020/02/24 09:04:58;;;;;;;0.7;0.7;;;;;;;7.13;80.05469;944.3904;;;;
2020/02/24 09:07:23;;;;;;;0.9;0.5;;;;;;;7.11;80.78418;944.327;;;;
2020/02/24 09:09:48;;;;;;;1.2;0.8;;;;;;;7.31;80.69824;944.3853;;;;
2020/02/24 09:12:13;;;;;;;0.6;0.6;;;;;;;7.39;80.0332;944.2887;;;;
2020/02/24 09:14:38;;;;;;;1.1;0.7;;;;;;;7.37;80.22266;944.3301;;;;
2020/02/24 09:17:03;;;;;;;0.9;0.7;;;;;;;7.57;79.25195;944.3405;;;;
2020/02/24 09:19:28;;;;;;;1.3;0.7;;;;;;;7.58;78.50391;944.3535;;;;
2020/02/24 09:21:53;;;;;;;2.1;0.6;;;;;;;7.76;78.50098;944.2766;;;;
2020/02/24 09:24:18;;;;;;;1.7;0.9;;;;;;;7.8;78.10156;944.2508;;;;
2020/02/24 09:26:43;;;;;;;1.6;0.9;;;;;;;7.77;77.64258;944.2555;;;;
2020/02/24 09:29:08;;;;;;;1.2;0.9;;;;;;;7.88;77.7998;944.2385;;;;
2020/02/24 09:31:34;;;;;;;1.2;0.8;;;;;;;8;76.93457;944.0737;;;;
2020/02/24 09:33:59;;;;;;;1;0.6;;;;;;;8.09;75.81543;944.0195;;;;
2020/02/24 09:36:24;;;;;;;1;0.8;;;;;;;7.89;77.3916;944.0126;;;;
2020/02/24 09:38:49;;;;;;;1.1;0.6;;;;;;;7.58;78.41309;944.0991;;;;
2020/02/24 09:41:15;;;;;;;1;0.6;;;;;;;7.72;78.13184;944.0129;;;;
2020/02/24 09:43:40;;;;;;;0.8;0.7;;;;;;;7.88;76.73145;944.0084;;;;
2020/02/24 09:46:05;;;;;;;11.2;3.1;;;;;;;7.9;75.94238;943.872;;;;
2020/02/24 09:48:30;;;;;;;1.1;0.9;;;;;;;7.88;77.31152;943.7961;;;;
2020/02/24 09:50:56;;;;;;;1.3;0.9;;;;;;;7.77;78.9248;943.7617;;;;
2020/02/24 09:53:21;;;;;;;3.2;1.6;;;;;;;7.9;78.09668;943.7568;;;;
2020/02/24 09:55:46;;;;;;;2.6;1.2;;;;;;;7.63;78.52344;943.6824;;;;
2020/02/24 09:58:11;;;;;;;11.3;3.4;;;;;;;7.67;79.28027;943.7087;;;;
2020/02/24 10:00:36;;;;;;;3.2;1.7;;;;;;;7.55;79.61035;943.5901;;;;
2020/02/24 10:03:02;;;;;;;15.1;5;;;;;;;7.41;80.63965;943.6472;;;;
2020/02/24 10:05:27;;;;;;;12.3;4.3;;;;;;;7.57;80.52051;943.5622;;;;
2020/02/24 10:07:53;;;;;;;4.7;2.2;;;;;;;7.39;80.48828;943.6652;;;;
2020/02/24 10:10:19;;;;;;;3;2.1;;;;;;;6.93;82.12305;943.6513;;;;
2020/02/24 10:12:47;;;;;;;3.5;2.4;;;;;;;6.65;83.99023;943.5446;;;;
2020/02/24 10:15:09;;;;;;;4;2.6;;;;;;;6.8;84.73438;943.6167;;;;
2020/02/24 10:17:35;;;;;;;4.3;2.6;;;;;;;6.8;84.21387;943.4847;;;;
2020/02/24 10:20:00;;;;;;;4.7;2.7;;;;;;;6.6;85.37207;943.488;;;;
2020/02/24 10:22:25;;;;;;;7.1;3.2;;;;;;;6.87;85.78906;943.4595;;;;
2020/02/24 10:24:50;;;;;;;4.5;2.8;;;;;;;7.05;85.6875;943.4794;;;;
2020/02/24 10:27:16;;;;;;;2.5;1.7;;;;;;;7.1;84.65625;943.4319;;;;
2020/02/24 10:29:41;;;;;;;3.6;2.1;;;;;;;7.39;84.7832;943.4378;;;;
2020/02/24 10:32:06;;;;;;;3.5;2.1;;;;;;;7.51;83.97852;943.2846;;;;
2020/02/24 10:34:31;;;;;;;2.7;1.6;;;;;;;7.53;82.91602;943.2795;;;;
2020/02/24 10:36:56;;;;;;;3.4;1.7;;;;;;;7.47;83.47266;943.1964;;;;
2020/02/24 10:39:21;;;;;;;4.1;1.9;;;;;;;7.41;83.44727;943.2608;;;;
2020/02/24 10:41:46;;;;;;;3.9;2.4;;;;;;;7.67;83.00098;943.1953;;;;
2020/02/24 10:44:12;;;;;;;4.1;3.3;;;;;;;7.62;83.6709;943.1177;;;;
2020/02/24 10:46:37;;;;;;;3.8;2.7;;;;;;;7.67;83.5;943.0242;;;;
2020/02/24 10:49:02;;;;;;;2.9;2;;;;;;;7.5;83.14844;942.8589;;;;
2020/02/24 10:51:27;;;;;;;1.8;1.4;;;;;;;7.42;83.69043;942.9439;;;;
2020/02/24 10:53:52;;;;;;;2.8;2;;;;;;;7.32;84.31738;942.829;;;;
2020/02/24 10:56:17;;;;;;;1.8;1.5;;;;;;;7.46;84.60254;942.868;;;;
2020/02/24 10:58:42;;;;;;;4.5;1.8;;;;;;;7.56;84.8623;942.9241;;;;
2020/02/24 11:01:07;;;;;;;2.1;1.5;;;;;;;7.56;84.05469;942.8066;;;;
2020/02/24 11:03:33;;;;;;;3.2;1.8;;;;;;;7.87;84.6748;942.7706;;;;
2020/02/24 11:05:58;;;;;;;3;1.5;;;;;;;;;;;;;
2020/02/24 11:08:24;;;;;;;2.4;1.5;;;;;;;;;;;;;
2020/02/24 11:10:49;;;;;;;3.8;1.8;;;;;;;;;;;;;
2020/02/24 11:13:14;;;;;;;3.6;2;;;;;;;;;;;;;
2020/02/24 11:15:39;;;;;;;5.3;2.2;;;;;;;;;;;;;
2020/02/24 11:18:04;;;;;;;3.8;2.4;;;;;;;;;;;;;
2020/02/24 11:20:30;;;;;;;3.1;2.1;;;;;;;;;;;;;
2020/02/24 11:22:56;;;;;;;2.6;1.5;;;;;;;;;;;;;
2020/02/24 11:25:20;;;;;;;2.7;1.6;;;;;;;;;;;;;
2020/02/24 11:27:45;;;;;;;2.9;1.8;;;;;;;;;;;;;
2020/02/24 11:30:10;;;;;;;2.7;2.1;;;;;;;;;;;;;
2020/02/24 11:32:35;;;;;;;2.8;2.1;;;;;;;;;;;;;
2020/02/24 11:35:00;;;;;;;3.2;2.9;;;;;;;;;;;;;
2020/02/24 11:37:25;;;;;;;3.4;3.1;;;;;;;;;;;;;
2020/02/24 11:39:51;;;;;;;2.9;2.6;;;;;;;;;;;;;
2020/02/24 11:42:16;;;;;;;2.1;1.7;;;;;;;;;;;;;
2020/02/24 11:44:41;;;;;;;2.3;1.6;;;;;;;;;;;;;
2020/02/24 11:47:06;;;;;;;3.8;2.4;;;;;;;;;;;;;
2020/02/24 11:49:31;;;;;;;2.4;1.5;;;;;;;;;;;;;
2020/02/24 11:51:56;;;;;;;1.4;1;;;;;;;;;;;;;
2020/02/24 11:54:21;;;;;;;3;1.2;;;;;;;;;;;;;
2020/02/24 11:56:46;;;;;;;3.2;1.9;;;;;;;;;;;;;
2020/02/24 11:59:11;;;;;;;2.3;1.6;;;;;;;;;;;;;
2020/02/24 12:01:37;;;;;;;2.1;1.3;;;;;;;;;;;;;
2020/02/24 12:04:02;;;;;;;3;1.5;;;;;;;;;;;;;
2020/02/24 12:06:27;;;;;;;3.4;1.4;;;;;;;;;;;;;
2020/02/24 12:08:53;;;;;;;2.5;1.4;;;;;;;;;;;;;
2020/02/24 12:11:18;;;;;;;2.2;1.2;;;;;;;;;;;;;
2020/02/24 12:13:43;;;;;;;1.6;1.4;;;;;;;;;;;;;
2020/02/24 12:16:08;;;;;;;2.2;1.4;;;;;;;;;;;;;
2020/02/24 12:18:35;;;;;;;1.6;1.3;;;;;;;;;;;;;
2020/02/24 12:20:58;;;;;;;2.6;1.2;;;;;;;;;;;;;
2020/02/24 12:23:23;;;;;;;1;0.8;;;;;;;;;;;;;
2020/02/24 12:25:49;;;;;;;1.2;0.8;;;;;;;;;;;;;
2020/02/24 12:28:14;;;;;;;1.5;1.1;;;;;;;;;;;;;
2020/02/24 12:30:39;;;;;;;2.7;1.7;;;;;;;;;;;;;
2020/02/24 12:33:04;;;;;;;1.9;1.1;;;;;;;;;;;;;
2020/02/24 12:35:29;;;;;;;0.9;0.7;;;;;;;;;;;;;
2020/02/24 12:37:54;;;;;;;1;0.8;;;;;;;;;;;;;
2020/02/24 12:40:19;;;;;;;1;0.8;;;;;;;;;;;;;
2020/02/24 12:42:45;;;;;;;1.9;0.9;;;;;;;;;;;;;
2020/02/24 12:45:10;;;;;;;1.5;0.9;;;;;;;;;;;;;
2020/02/24 12:47:35;;;;;;;1.5;1;;;;;;;;;;;;;
2020/02/24 12:50:00;;;;;;;1;0.9;;;;;;;;;;;;;
2020/02/24 12:52:25;;;;;;;1.6;1;;;;;;;;;;;;;
2020/02/24 12:54:50;;;;;;;0.9;0.7;;;;;;;;;;;;;
2020/02/24 12:59:43;;;;;;;1.9;0.8;;;;;;;;;;;;;
2020/02/24 13:02:05;;;;;;;1.1;0.6;;;;;;;;;;;;;
2020/02/24 13:04:30;;;;;;;0.5;0.3;;;;;;;;;;;;;
2020/02/24 13:06:55;;;;;;;2;1;;;;;;;;;;;;;
2020/02/24 13:09:21;;;;;;;0.7;0.5;;;;;;;;;;;;;
2020/02/24 13:11:46;;;;;;;1.3;0.9;;;;;;;;;;;;;
2020/02/24 13:14:11;;;;;;;0.7;0.5;;;;;;;;;;;;;
2020/02/24 13:16:36;;;;;;;1.2;0.4;;;;;;;;;;;;;
2020/02/24 13:19:04;;;;;;;0.5;0.4;;;;;;;;;;;;;
2020/02/24 13:21:27;;;;;;;0.4;0.4;;;;;;;;;;;;;
2020/02/24 13:23:52;;;;;;;1.5;0.5;;;;;;;;;;;;;
2020/02/24 13:26:17;;;;;;;0.7;0.3;;;;;;;;;;;;;
2020/02/24 13:28:42;;;;;;;0.4;0.3;;;;;;;;;;;;;
2020/02/24 13:31:07;;;;;;;0.5;0.4;;;;;;;;;;;;;
2020/02/24 13:33:32;;;;;;;0.9;0.5;;;;;;;;;;;;;
2020/02/24 13:35:57;;;;;;;0.9;0.7;;;;;;;;;;;;;
2020/02/24 13:38:22;;;;;;;0.8;0.7;;;;;;;;;;;;;
2020/02/24 13:41:08;;;;;;;1.6;0.6;;;;;;;;;;;;;
2020/02/24 13:43:12;;;;;;;1;0.6;;;;;;;;;;;;;
2020/02/24 13:45:37;;;;;;;1;0.4;;;;;;;;;;;;;
2020/02/24 13:48:03;;;;;;;0.6;0.4;;;;;;;;;;;;;
2020/02/24 13:50:28;;;;;;;1.5;0.6;;;;;;;;;;;;;
2020/02/24 13:52:53;;;;;;;2.6;0.5;;;;;;;;;;;;;
2020/02/24 13:55:18;;;;;;;0.7;0.5;;;;;;;;;;;;;
2020/02/24 13:57:44;;;;;;;1.1;0.6;;;;;;;;;;;;;
2020/02/24 14:00:08;;;;;;;2.2;0.7;;;;;;;;;;;;;
2020/02/24 14:02:33;;;;;;;1.9;0.7;;;;;;;;;;;;;
2020/02/24 14:05:02;;;;;;;2.1;0.8;;;;;;;;;;;;;
2020/02/24 14:07:27;;;;;;;2;0.6;;;;;;;;;;;;;
2020/02/24 14:09:52;;;;;;;2.1;0.6;;;;;;;;;;;;;
2020/02/24 14:12:19;;;;;;;0.7;0.4;;;;;;;;;;;;;
2020/02/24 14:14:45;;;;;;;1.1;0.5;;;;;;;;;;;;;
2020/02/24 14:17:07;;;;;;;0.5;0.4;;;;;;;;;;;;;
2020/02/24 14:19:33;;;;;;;3.3;0.6;;;;;;;;;;;;;
2020/02/24 14:21:57;;;;;;;3.3;0.6;;;;;;;;;;;;;
2020/02/24 14:24:23;;;;;;;1.5;0.9;;;;;;;;;;;;;
2020/02/24 14:26:48;;;;;;;2.2;0.6;;;;;;;;;;;;;
2020/02/24 14:29:13;;;;;;;3.3;0.9;;;;;;;;;;;;;
2020/02/24 14:31:38;;;;;;;2.8;0.6;;;;;;;;;;;;;
2020/02/24 14:34:03;;;;;;;3.7;0.7;;;;;;;;;;;;;
2020/02/24 14:36:28;;;;;;;4.4;0.6;;;;;;;;;;;;;
2020/02/24 14:38:53;;;;;;;4.4;0.7;;;;;;;;;;;;;
2020/02/24 14:41:19;;;;;;;1.1;0.8;;;;;;;;;;;;;
2020/02/24 14:43:44;;;;;;;4.7;1;;;;;;;;;;;;;
2020/02/24 14:46:09;;;;;;;2.9;0.7;;;;;;;;;;;;;
2020/02/24 14:48:34;;;;;;;2.8;1;;;;;;;;;;;;;
2020/02/24 14:50:59;;;;;;;3.4;0.6;;;;;;;;;;;;;
2020/02/24 14:53:24;;;;;;;1.8;0.5;;;;;;;;;;;;;
2020/02/24 14:55:49;;;;;;;2.4;0.5;;;;;;;;;;;;;
2020/02/24 14:58:15;;;;;;;2.4;0.5;;;;;;;;;;;;;
2020/02/24 15:00:40;;;;;;;1.3;0.4;;;;;;;;;;;;;
2020/02/24 15:03:05;;;;;;;2;0.5;;;;;;;;;;;;;
2020/02/24 15:05:30;;;;;;;3;0.7;;;;;;;;;;;;;
2020/02/24 15:07:55;;;;;;;3.1;1.4;;;;;;;;;;;;;
2020/02/24 15:10:20;;;;;;;1.1;0.6;;;;;;;;;;;;;
2020/02/24 15:12:45;;;;;;;2.8;1.2;;;;;;;;;;;;;
2020/02/24 15:15:10;;;;;;;0.9;0.7;;;;;;;;;;;;;
2020/02/24 15:17:36;;;;;;;1.1;0.6;;;;;;;;;;;;;
2020/02/24 15:20:00;;;;;;;1.2;0.9;;;;;;;;;;;;;
2020/02/24 15:22:26;;;;;;;1.1;0.9;;;;;;;;;;;;;
2020/02/24 15:24:51;;;;;;;2.3;1.1;;;;;;;;;;;;;
2020/02/24 15:27:16;;;;;;;1.1;0.5;;;;;;;;;;;;;
2020/02/24 15:29:41;;;;;;;1.5;1.1;;;;;;;;;;;;;
2020/02/24 15:32:14;;;;;;;3.2;1.6;;;;;;;;;;;;;
2020/02/24 15:34:31;;;;;;;1.5;0.6;;;;;;;;;;;;;
2020/02/24 15:36:56;;;;;;;1.1;0.8;;;;;;;;;;;;;
2020/02/24 15:39:21;;;;;;;3.8;1.2;;;;;;;;;;;;;
2020/02/24 15:41:46;;;;;;;1.4;0.4;;;;;;;;;;;;;
2020/02/24 15:44:11;;;;;;;4;2;;;;;;;;;;;;;
2020/02/24 15:46:36;;;;;;;5.3;2.6;;;;;;;;;;;;;
2020/02/24 15:49:01;;;;;;;2.9;2.6;;;;;;;;;;;;;
2020/02/24 15:51:26;;;;;;;4.6;1.3;;;;;;;;;;;;;
2020/02/24 15:53:51;;;;;;;1.1;0.6;;;;;;;;;;;;;
2020/02/24 15:56:17;;;;;;;2.2;0.6;;;;;;;;;;;;;
2020/02/24 15:58:42;;;;;;;2.5;1.1;;;;;;;;;;;;;
2020/02/24 16:01:07;;;;;;;3.1;0.8;;;;;;;;;;;;;